createdAt,value
2022-10-22T00:02:01.421Z,79.38
2022-10-22T00:04:03.290Z,79.09
2022-10-22T00:06:05.452Z,79.03
2022-10-22T00:08:07.423Z,79.15
2022-10-22T00:10:09.694Z,79.54
2022-10-22T00:12:11.657Z,79.33
2022-10-22T00:14:13.495Z,79.50
2022-10-22T00:16:15.412Z,79.33
2022-10-22T00:18:17.296Z,78.88
2022-10-22T00:20:19.750Z,79.71
2022-10-22T00:22:21.650Z,79.95
2022-10-22T00:24:23.576Z,79.64
2022-10-22T00:26:25.567Z,79.32
2022-10-22T00:28:27.614Z,79.12
2022-10-22T00:30:29.498Z,78.86
2022-10-22T00:32:31.338Z,78.63
2022-10-22T00:34:33.662Z,79.04
2022-10-22T00:36:35.497Z,78.97
2022-10-22T00:38:37.450Z,79.06
2022-10-22T00:40:39.419Z,79.07
2022-10-22T00:42:41.489Z,79.45
2022-10-22T00:45:05.319Z,79.47
2022-10-22T00:47:07.270Z,79.33
2022-10-22T00:49:09.081Z,79.67
2022-10-22T00:51:11.049Z,79.34
2022-10-22T00:53:17.231Z,79.22
2022-10-22T00:55:20.832Z,79.12
2022-10-22T00:57:22.883Z,79.13
2022-10-22T00:59:27.673Z,79.10
2022-10-22T01:01:32.427Z,79.08
2022-10-22T01:03:34.495Z,78.98
2022-10-22T01:05:47.026Z,79.09
2022-10-22T01:07:53.085Z,78.92
2022-10-22T01:10:24.951Z,78.70
2022-10-22T01:12:34.956Z,78.89
2022-10-22T01:14:52.372Z,78.83
2022-10-22T01:17:05.099Z,78.80
2022-10-22T01:19:17.226Z,78.89
2022-10-22T01:21:21.888Z,78.57
2022-10-22T01:23:52.974Z,78.53
2022-10-22T01:26:11.899Z,78.73
2022-10-22T01:28:16.987Z,78.39
2022-10-22T01:30:19.555Z,79.15
2022-10-22T01:32:26.427Z,79.52
2022-10-22T01:34:31.083Z,80.12
2022-10-22T01:36:36.359Z,80.55
2022-10-22T01:38:39.967Z,80.96
2022-10-22T01:40:43.400Z,81.25
2022-10-22T01:43:01.626Z,81.31
2022-10-22T01:45:11.291Z,81.70
2022-10-22T01:47:20.170Z,82.09
2022-10-22T01:49:41.763Z,81.84
2022-10-22T01:51:56.537Z,82.42
2022-10-22T01:54:11.904Z,82.63
2022-10-22T01:56:16.689Z,82.69
2022-10-22T01:58:39.442Z,82.75
2022-10-22T02:00:48.015Z,82.53
2022-10-22T02:03:04.810Z,82.60
2022-10-22T02:05:38.735Z,82.80
2022-10-22T02:07:49.821Z,83.04
2022-10-22T02:09:52.713Z,82.82
2022-10-22T02:11:55.994Z,82.92
2022-10-22T02:14:02.862Z,83.08
2022-10-22T02:16:08.226Z,82.72
2022-10-22T02:18:11.895Z,82.81
2022-10-22T02:20:18.993Z,83.10
2022-10-22T02:22:20.875Z,83.07
2022-10-22T02:24:23.041Z,83.08
2022-10-22T02:26:48.075Z,83.00
2022-10-22T02:29:03.055Z,83.36
2022-10-22T02:31:14.053Z,83.43
2022-10-22T02:33:23.361Z,83.11
2022-10-22T02:35:27.838Z,83.71
2022-10-22T02:37:30.158Z,83.53
2022-10-22T02:39:33.388Z,83.83
2022-10-22T02:41:36.589Z,83.91
2022-10-22T02:43:48.959Z,83.92
2022-10-22T02:45:51.214Z,83.83
2022-10-22T02:47:53.070Z,83.68
2022-10-22T02:49:54.964Z,83.92
2022-10-22T02:51:57.286Z,84.46
2022-10-22T02:53:59.206Z,84.27
2022-10-22T02:56:01.091Z,84.39
2022-10-22T02:58:03.056Z,84.11
2022-10-22T03:00:07.044Z,84.31
2022-10-22T03:02:08.995Z,84.21
2022-10-22T03:04:10.882Z,84.26
2022-10-22T03:06:12.862Z,84.36
2022-10-22T03:08:14.718Z,84.02
2022-10-22T03:10:16.553Z,84.14
2022-10-22T03:12:18.460Z,84.52
2022-10-22T03:14:20.382Z,84.63
2022-10-22T03:16:22.458Z,84.38
2022-10-22T03:18:25.355Z,84.41
2022-10-22T03:20:27.509Z,84.35
2022-10-22T03:22:31.769Z,84.61
2022-10-22T03:24:40.679Z,84.38
2022-10-22T03:26:45.150Z,84.66
2022-10-22T03:28:48.598Z,84.44
2022-10-22T03:30:50.572Z,84.50
2022-10-22T03:32:52.420Z,84.52
2022-10-22T03:34:54.272Z,84.78
2022-10-22T03:36:59.732Z,84.34
2022-10-22T03:39:07.095Z,84.50
2022-10-22T03:41:09.702Z,84.45
2022-10-22T03:43:11.875Z,84.78
2022-10-22T03:45:13.841Z,84.83
2022-10-22T03:47:15.693Z,84.44
2022-10-22T03:49:17.598Z,84.76
2022-10-22T03:51:19.451Z,84.98
2022-10-22T03:53:21.548Z,84.85
2022-10-22T03:55:23.355Z,84.40
2022-10-22T03:57:25.688Z,84.31
2022-10-22T03:59:28.088Z,84.65
2022-10-22T04:01:30.730Z,84.59
2022-10-22T04:03:32.833Z,84.63
2022-10-22T04:05:34.725Z,84.69
2022-10-22T04:07:36.692Z,84.58
2022-10-22T04:09:38.672Z,84.76
2022-10-22T04:11:40.619Z,84.70
2022-10-22T04:13:43.211Z,84.63
2022-10-22T04:17:47.937Z,85.02
2022-10-22T04:19:49.871Z,84.71
2022-10-22T04:21:51.719Z,84.79
2022-10-22T04:23:53.998Z,84.74
2022-10-22T04:26:05.296Z,84.90
2022-10-22T04:28:08.507Z,84.81
2022-10-22T04:30:10.803Z,84.98
2022-10-22T04:32:12.690Z,84.60
2022-10-22T04:34:14.496Z,84.57
2022-10-22T04:36:18.548Z,85.18
2022-10-22T04:38:20.416Z,85.03
2022-10-22T04:40:22.719Z,84.82
2022-10-22T04:42:24.674Z,84.69
2022-10-22T04:44:26.484Z,84.90
2022-10-22T04:46:30.360Z,84.91
2022-10-22T04:48:32.170Z,84.64
2022-10-22T04:50:34.152Z,84.88
2022-10-22T04:52:36.016Z,84.39
2022-10-22T04:54:38.917Z,84.89
2022-10-22T04:56:40.837Z,84.32
2022-10-22T04:58:44.464Z,84.80
2022-10-22T05:00:46.392Z,84.58
2022-10-22T05:02:51.710Z,84.46
2022-10-22T05:04:53.580Z,84.57
2022-10-22T05:06:55.446Z,84.16
2022-10-22T05:09:00.458Z,83.95
2022-10-22T05:11:10.107Z,83.87
2022-10-22T05:13:11.909Z,84.00
2022-10-22T05:15:13.738Z,84.15
2022-10-22T05:17:15.533Z,84.10
2022-10-22T05:19:24.169Z,84.04
2022-10-22T05:21:26.707Z,84.41
2022-10-22T05:23:29.430Z,84.19
2022-10-22T05:25:31.338Z,84.00
2022-10-22T05:27:33.112Z,84.04
2022-10-22T05:29:34.988Z,84.19
2022-10-22T05:31:39.244Z,83.84
2022-10-22T05:33:41.961Z,83.90
2022-10-22T05:35:46.778Z,83.55
2022-10-22T05:37:48.849Z,83.82
2022-10-22T05:39:57.609Z,83.67
2022-10-22T05:42:08.715Z,83.18
2022-10-22T05:44:15.577Z,82.93
2022-10-22T05:46:23.258Z,83.00
2022-10-22T05:48:25.296Z,82.91
2022-10-22T05:50:27.226Z,82.92
2022-10-22T05:52:29.090Z,82.72
2022-10-22T05:54:30.973Z,82.75
2022-10-22T05:56:32.986Z,82.76
2022-10-22T05:58:35.524Z,82.73
2022-10-22T06:00:37.515Z,83.13
2022-10-22T06:02:39.816Z,83.06
2022-10-22T06:04:42.016Z,82.89
2022-10-22T06:06:50.411Z,83.23
2022-10-22T06:08:54.285Z,82.82
2022-10-22T06:10:57.001Z,82.81
2022-10-22T06:12:58.908Z,83.12
2022-10-22T06:15:00.819Z,82.87
2022-10-22T06:17:05.848Z,83.00
2022-10-22T06:19:08.345Z,82.43
2022-10-22T06:21:12.875Z,82.77
2022-10-22T06:23:15.565Z,82.42
2022-10-22T06:25:17.681Z,82.51
2022-10-22T06:27:22.263Z,82.67
2022-10-22T06:29:24.220Z,82.68
2022-10-22T06:31:27.295Z,82.58
2022-10-22T06:33:31.763Z,82.69
2022-10-22T06:35:33.703Z,82.17
2022-10-22T06:37:35.609Z,82.63
2022-10-22T06:39:37.423Z,82.13
2022-10-22T06:41:39.856Z,82.23
2022-10-22T06:43:45.531Z,82.31
2022-10-22T06:45:47.509Z,81.72
2022-10-22T06:47:50.436Z,82.13
2022-10-22T06:49:52.334Z,81.49
2022-10-22T06:51:55.496Z,81.80
2022-10-22T06:53:58.579Z,82.07
2022-10-22T06:56:05.802Z,81.89
2022-10-22T06:58:07.761Z,82.01
2022-10-22T07:00:10.551Z,82.11
2022-10-22T07:02:12.394Z,82.06
2022-10-22T07:04:15.546Z,81.69
2022-10-22T07:06:17.666Z,81.71
2022-10-22T07:08:20.750Z,81.93
2022-10-22T07:10:24.186Z,81.88
2022-10-22T07:12:28.988Z,81.83
2022-10-22T07:14:30.877Z,81.97
2022-10-22T07:16:32.865Z,82.22
2022-10-22T07:18:36.003Z,82.47
2022-10-22T07:20:37.933Z,82.76
2022-10-22T07:22:44.211Z,82.75
2022-10-22T07:24:47.108Z,82.84
2022-10-22T07:26:49.443Z,83.11
2022-10-22T07:28:51.675Z,83.26
2022-10-22T07:30:54.002Z,83.51
2022-10-22T07:32:55.959Z,83.59
2022-10-22T07:36:06.564Z,83.78
2022-10-22T07:38:13.316Z,83.87
2022-10-22T07:40:15.389Z,83.97
2022-10-22T07:42:17.242Z,83.83
2022-10-22T07:44:19.340Z,83.44
2022-10-22T07:46:21.661Z,83.33
2022-10-22T07:48:24.185Z,83.08
2022-10-22T07:50:26.542Z,82.81
2022-10-22T07:52:29.329Z,82.73
2022-10-22T07:54:31.283Z,82.25
2022-10-22T07:56:33.205Z,82.93
2022-10-22T07:58:36.140Z,82.48
2022-10-22T08:00:38.103Z,82.60
2022-10-22T08:02:40.288Z,82.11
2022-10-22T08:04:43.224Z,82.47
2022-10-22T08:06:47.246Z,82.09
2022-10-22T08:08:49.953Z,82.03
2022-10-22T08:10:53.516Z,82.29
2022-10-22T08:12:55.597Z,82.59
2022-10-22T08:14:57.714Z,82.39
2022-10-22T08:17:03.200Z,82.04
2022-10-22T08:19:05.082Z,81.65
2022-10-22T08:21:07.621Z,81.45
2022-10-22T08:23:10.163Z,81.35
2022-10-22T08:25:12.801Z,81.70
2022-10-22T08:27:15.121Z,81.18
2022-10-22T08:29:17.063Z,81.38
2022-10-22T08:31:19.037Z,81.49
2022-10-22T08:33:21.103Z,81.23
2022-10-22T08:35:23.091Z,81.21
2022-10-22T08:37:26.094Z,80.91
2022-10-22T08:39:28.228Z,80.89
2022-10-22T08:41:30.785Z,80.74
2022-10-22T08:44:11.321Z,80.57
2022-10-22T08:46:38.990Z,80.53
2022-10-22T08:48:49.959Z,80.48
2022-10-22T08:50:56.245Z,80.81
2022-10-22T08:53:02.954Z,80.12
2022-10-22T08:55:10.151Z,79.89
2022-10-22T08:57:51.399Z,80.10
2022-10-22T09:00:12.137Z,80.19
2022-10-22T09:02:26.051Z,78.96
2022-10-22T09:04:42.824Z,79.38
2022-10-22T09:06:45.175Z,79.22
2022-10-22T09:08:48.935Z,79.55
2022-10-22T09:11:07.213Z,79.44
2022-10-22T09:13:14.356Z,79.14
2022-10-22T09:15:18.813Z,79.49
2022-10-22T09:17:41.746Z,79.38
2022-10-22T09:19:58.081Z,79.59
2022-10-22T09:22:11.331Z,79.50
2022-10-22T09:24:22.245Z,79.89
2022-10-22T09:26:26.570Z,79.19
2022-10-22T09:28:28.562Z,79.03
2022-10-22T09:30:35.008Z,78.97
2022-10-22T09:32:36.871Z,79.48
2022-10-22T09:34:38.841Z,78.69
2022-10-22T09:36:40.725Z,78.64
2022-10-22T09:38:50.147Z,78.58
2022-10-22T09:40:55.531Z,78.54
2022-10-22T09:42:58.485Z,78.12
2022-10-22T09:45:00.473Z,78.80
2022-10-22T09:48:00.474Z,77.75
2022-10-22T09:50:21.957Z,77.47
2022-10-22T09:52:30.462Z,77.17
2022-10-22T09:54:32.322Z,77.52
2022-10-22T09:56:41.113Z,77.15
2022-10-22T09:58:49.531Z,77.01
2022-10-22T10:01:01.470Z,77.32
2022-10-22T10:03:03.526Z,77.31
2022-10-22T10:05:08.561Z,77.29
2022-10-22T10:07:23.540Z,77.52
2022-10-22T10:09:27.467Z,77.55
2022-10-22T10:11:47.101Z,77.52
2022-10-22T10:14:08.592Z,77.91
2022-10-22T10:16:26.460Z,77.70
2022-10-22T10:18:37.047Z,78.21
2022-10-22T10:20:46.561Z,78.31
2022-10-22T10:22:48.359Z,78.37
2022-10-22T10:25:09.566Z,78.45
2022-10-22T10:27:20.257Z,78.91
2022-10-22T10:29:47.138Z,80.28
2022-10-22T10:32:21.066Z,81.20
2022-10-22T10:34:47.931Z,81.22
2022-10-22T10:37:16.360Z,81.83
2022-10-22T10:39:41.025Z,81.78
2022-10-22T10:41:55.938Z,81.93
2022-10-22T10:44:33.909Z,81.79
2022-10-22T10:47:16.182Z,81.69
2022-10-22T10:49:25.255Z,80.84
2022-10-22T10:51:37.288Z,80.34
2022-10-22T10:53:55.216Z,80.07
2022-10-22T10:56:04.713Z,80.20
2022-10-22T10:58:33.907Z,80.03
2022-10-22T11:01:00.125Z,79.87
2022-10-22T11:03:09.025Z,79.90
2022-10-22T11:05:29.267Z,79.92
2022-10-22T11:07:49.583Z,79.49
2022-10-22T11:10:00.370Z,79.73
2022-10-22T11:12:07.210Z,79.17
2022-10-22T11:14:42.021Z,79.22
2022-10-22T11:16:51.167Z,78.72
2022-10-22T11:19:07.841Z,79.16
2022-10-22T11:21:15.496Z,79.06
2022-10-22T11:23:34.600Z,79.08
2022-10-22T11:25:44.771Z,79.03
2022-10-22T11:27:46.742Z,79.30
2022-10-22T11:29:57.493Z,78.95
2022-10-22T11:32:02.093Z,78.97
2022-10-22T11:34:32.048Z,79.16
2022-10-22T11:38:36.139Z,78.99
2022-10-22T11:40:50.752Z,78.50
2022-10-22T11:43:04.644Z,79.01
2022-10-22T11:45:15.790Z,79.23
2022-10-22T11:47:24.314Z,78.99
2022-10-22T11:49:43.944Z,80.38
2022-10-22T11:51:47.367Z,80.16
2022-10-22T11:53:57.025Z,79.84
2022-10-22T11:56:21.542Z,79.70
2022-10-22T11:58:30.184Z,79.55
2022-10-22T12:00:46.564Z,79.92
2022-10-22T12:03:16.094Z,79.71
2022-10-22T12:05:39.551Z,79.65
2022-10-22T12:07:57.303Z,79.71
2022-10-22T12:09:59.646Z,80.10
2022-10-22T12:12:23.326Z,80.03
2022-10-22T12:14:33.949Z,80.07
2022-10-22T12:16:55.272Z,80.41
2022-10-22T12:19:14.631Z,79.87
2022-10-22T12:21:17.416Z,79.19
2022-10-22T12:23:21.339Z,79.58
2022-10-22T12:25:26.246Z,79.25
2022-10-22T12:27:42.946Z,79.03
2022-10-22T12:29:45.093Z,79.12
2022-10-22T12:31:47.913Z,78.62
2022-10-22T12:33:56.975Z,79.15
2022-10-22T12:36:04.284Z,78.90
2022-10-22T12:38:25.994Z,78.56
2022-10-22T12:40:30.998Z,78.72
2022-10-22T12:42:33.067Z,78.23
2022-10-22T12:44:36.071Z,78.44
2022-10-22T12:46:38.265Z,78.17
2022-10-22T12:48:44.429Z,78.13
2022-10-22T12:50:59.957Z,77.91
2022-10-22T12:53:19.529Z,78.57
2022-10-22T12:55:26.107Z,78.51
2022-10-22T12:57:31.160Z,78.39
2022-10-22T12:59:42.857Z,78.50
2022-10-22T13:01:49.905Z,78.09
2022-10-22T13:04:05.848Z,78.71
2022-10-22T13:06:20.482Z,78.54
2022-10-22T13:08:26.817Z,77.75
2022-10-22T13:10:35.982Z,78.33
2022-10-22T13:12:39.072Z,78.43
2022-10-22T13:14:41.256Z,78.60
2022-10-22T13:16:43.211Z,78.43
2022-10-22T13:18:46.808Z,77.73
2022-10-22T13:21:00.850Z,78.09
2022-10-22T13:23:06.908Z,78.30
2022-10-22T13:25:15.034Z,78.09
2022-10-22T13:27:17.154Z,78.32
2022-10-22T13:29:21.458Z,78.29
2022-10-22T13:31:27.621Z,78.31
2022-10-22T13:33:39.483Z,77.83
2022-10-22T13:35:41.319Z,77.72
2022-10-22T13:37:43.754Z,78.22
2022-10-22T13:39:46.579Z,78.27
2022-10-22T13:41:50.826Z,78.31
2022-10-22T13:43:54.496Z,78.32
2022-10-22T13:46:00.286Z,78.31
2022-10-22T13:48:02.717Z,78.87
2022-10-22T13:50:13.824Z,79.08
2022-10-22T13:52:27.867Z,79.13
2022-10-22T13:54:30.013Z,79.09
2022-10-22T13:56:32.003Z,78.88
2022-10-22T13:58:33.953Z,78.64
2022-10-22T14:00:39.817Z,78.78
2022-10-22T14:02:42.865Z,78.94
2022-10-22T14:04:45.699Z,79.20
2022-10-22T14:06:50.443Z,79.28
2022-10-22T14:08:58.611Z,78.69
2022-10-22T14:11:01.574Z,79.02
2022-10-22T14:13:03.621Z,79.28
2022-10-22T14:15:07.362Z,79.12
2022-10-22T14:17:16.999Z,79.38
2022-10-22T14:19:18.974Z,79.24
2022-10-22T14:21:21.139Z,79.16
2022-10-22T14:23:26.140Z,79.46
2022-10-22T14:25:28.242Z,79.43
2022-10-22T14:27:30.141Z,79.76
2022-10-22T14:29:33.114Z,79.37
2022-10-22T14:31:36.644Z,79.83
2022-10-22T14:33:40.048Z,79.96
2022-10-22T14:35:42.253Z,79.90
2022-10-22T14:37:44.367Z,79.78
2022-10-22T14:39:52.092Z,79.65
2022-10-22T14:41:54.071Z,79.55
2022-10-22T14:43:56.576Z,79.60
2022-10-22T14:45:58.785Z,79.52
2022-10-22T14:48:00.797Z,79.81
2022-10-22T14:50:02.951Z,80.07
2022-10-22T14:52:14.141Z,80.10
2022-10-22T14:54:19.884Z,80.33
2022-10-22T14:56:21.905Z,80.16
2022-10-22T14:58:26.138Z,80.36
2022-10-22T15:00:28.254Z,80.14
2022-10-22T15:02:30.534Z,80.90
2022-10-22T15:04:32.335Z,80.92
2022-10-22T15:06:48.973Z,81.12
2022-10-22T15:08:53.535Z,80.63
2022-10-22T15:11:03.746Z,80.92
2022-10-22T15:13:08.435Z,80.91
2022-10-22T15:15:11.013Z,81.14
2022-10-22T15:17:13.367Z,80.89
2022-10-22T15:19:20.239Z,81.05
2022-10-22T15:21:31.542Z,81.10
2022-10-22T15:25:57.488Z,81.32
2022-10-22T15:28:03.383Z,81.24
2022-10-22T15:30:11.015Z,81.56
2022-10-22T15:32:12.908Z,81.65
2022-10-22T15:34:27.605Z,81.54
2022-10-22T15:36:33.750Z,81.64
2022-10-22T15:38:37.891Z,81.83
2022-10-22T15:40:45.083Z,81.96
2022-10-22T15:42:49.892Z,81.85
2022-10-22T15:45:00.214Z,82.38
2022-10-22T15:47:08.326Z,82.49
2022-10-22T15:49:16.045Z,82.69
2022-10-22T15:51:20.408Z,82.95
2022-10-22T15:53:24.682Z,83.05
2022-10-22T15:55:26.960Z,83.69
2022-10-22T15:57:30.327Z,83.79
2022-10-22T15:59:32.579Z,83.90
2022-10-22T16:01:37.745Z,83.69
2022-10-22T16:03:45.361Z,84.00
2022-10-22T16:05:54.809Z,84.32
2022-10-22T16:07:57.836Z,84.36
2022-10-22T16:10:13.068Z,84.43
2022-10-22T16:12:17.184Z,84.35
2022-10-22T16:14:28.525Z,84.72
2022-10-22T16:16:36.136Z,84.90
2022-10-22T16:18:38.035Z,84.87
2022-10-22T16:20:41.419Z,84.96
2022-10-22T16:22:55.592Z,85.10
2022-10-22T16:24:57.820Z,85.06
2022-10-22T16:27:02.665Z,85.09
2022-10-22T16:29:11.744Z,85.26
2022-10-22T16:31:28.252Z,85.57
2022-10-22T16:33:57.293Z,85.67
2022-10-22T16:36:00.376Z,85.65
2022-10-22T16:38:08.385Z,85.45
2022-10-22T16:40:11.303Z,85.42
2022-10-22T16:42:15.538Z,85.61
2022-10-22T16:44:17.621Z,85.50
2022-10-22T16:46:21.466Z,85.69
2022-10-22T16:48:24.741Z,85.68
2022-10-22T16:50:26.892Z,86.18
2022-10-22T16:52:29.283Z,85.90
2022-10-22T16:54:31.335Z,85.80
2022-10-22T16:56:36.636Z,85.97
2022-10-22T16:58:39.872Z,85.86
2022-10-22T17:00:42.437Z,85.78
2022-10-22T17:02:47.519Z,85.98
2022-10-22T17:04:52.073Z,86.16
2022-10-22T17:06:54.590Z,85.80
2022-10-22T17:08:57.271Z,86.17
2022-10-22T17:11:09.702Z,86.34
2022-10-22T17:13:14.347Z,85.93
2022-10-22T17:15:16.778Z,86.14
2022-10-22T17:17:19.243Z,85.97
2022-10-22T17:19:35.147Z,86.21
2022-10-22T17:21:37.932Z,85.90
2022-10-22T17:23:44.167Z,85.92
2022-10-22T17:25:47.961Z,86.02
2022-10-22T17:27:50.983Z,86.21
2022-10-22T17:29:54.478Z,86.28
2022-10-22T17:31:57.171Z,86.28
2022-10-22T17:34:00.527Z,86.14
2022-10-22T17:36:13.714Z,86.14
2022-10-22T17:38:19.123Z,86.04
2022-10-22T17:40:23.734Z,86.13
2022-10-22T17:42:28.617Z,86.04
2022-10-22T17:44:31.097Z,85.90
2022-10-22T17:46:44.056Z,85.88
2022-10-22T17:48:53.371Z,86.00
2022-10-22T17:50:56.982Z,85.81
2022-10-22T17:53:01.379Z,85.74
2022-10-22T17:55:04.236Z,86.07
2022-10-22T17:57:06.925Z,86.08
2022-10-22T17:59:12.496Z,86.04
2022-10-22T18:01:48.412Z,85.86
2022-10-22T18:03:52.113Z,85.97
2022-10-22T18:05:55.379Z,85.92
2022-10-22T18:07:58.124Z,86.01
2022-10-22T18:10:00.605Z,86.05
2022-10-22T18:12:03.504Z,85.95
2022-10-22T18:14:12.992Z,86.11
2022-10-22T18:16:18.573Z,86.06
2022-10-22T18:18:20.922Z,85.85
2022-10-22T18:20:23.397Z,86.02
2022-10-22T18:22:25.461Z,85.93
2022-10-22T18:24:30.406Z,85.54
2022-10-22T18:26:33.127Z,85.39
2022-10-22T18:28:35.691Z,85.38
2022-10-22T18:30:38.848Z,85.68
2022-10-22T18:32:44.036Z,85.45
2022-10-22T18:34:46.373Z,85.51
2022-10-22T18:36:48.838Z,85.99
2022-10-22T18:38:52.099Z,85.68
2022-10-22T18:40:54.461Z,86.03
2022-10-22T18:42:59.615Z,86.58
2022-10-22T18:45:01.634Z,86.99
2022-10-22T18:47:03.957Z,86.79
2022-10-22T18:49:10.087Z,86.75
2022-10-22T18:51:12.576Z,86.62
2022-10-22T18:53:16.775Z,86.87
2022-10-22T18:55:19.205Z,87.22
2022-10-22T18:57:21.459Z,87.19
2022-10-22T18:59:26.612Z,87.07
2022-10-22T19:01:31.953Z,87.24
2022-10-22T19:03:34.197Z,86.88
2022-10-22T19:05:49.373Z,86.94
2022-10-22T19:07:51.541Z,87.14
2022-10-22T19:09:53.815Z,87.17
2022-10-22T19:11:58.577Z,86.93
2022-10-22T19:14:01.494Z,87.31
2022-10-22T19:16:05.739Z,86.83
2022-10-22T19:18:09.309Z,87.36
2022-10-22T19:20:11.793Z,87.07
2022-10-22T19:22:14.053Z,87.00
2022-10-22T19:24:18.020Z,87.05
2022-10-22T19:26:21.943Z,87.12
2022-10-22T19:28:24.282Z,87.36
2022-10-22T19:30:26.699Z,87.48
2022-10-22T19:32:31.666Z,87.61
2022-10-22T19:34:34.251Z,87.55
2022-10-22T19:36:37.028Z,87.41
2022-10-22T19:38:41.957Z,87.51
2022-10-22T19:40:45.214Z,87.89
2022-10-22T19:42:50.587Z,87.71
2022-10-22T19:44:53.385Z,87.71
2022-10-22T19:46:55.555Z,87.73
2022-10-22T19:48:57.787Z,87.94
2022-10-22T19:51:03.628Z,87.69
2022-10-22T19:53:06.173Z,87.74
2022-10-22T19:55:11.118Z,87.79
2022-10-22T19:57:21.633Z,88.04
2022-10-22T19:59:29.904Z,88.04
2022-10-22T20:01:35.255Z,88.21
2022-10-22T20:03:39.145Z,88.24
2022-10-22T20:05:43.157Z,88.12
2022-10-22T20:07:45.122Z,88.06
2022-10-22T20:09:49.764Z,88.05
2022-10-22T20:11:52.171Z,88.07
2022-10-22T20:13:55.379Z,88.03
2022-10-22T20:15:57.479Z,88.28
2022-10-22T20:18:05.088Z,88.39
2022-10-22T20:20:08.779Z,88.06
2022-10-22T20:22:18.743Z,88.23
2022-10-22T20:24:20.973Z,88.10
2022-10-22T20:26:33.670Z,88.52
2022-10-22T20:28:38.475Z,88.29
2022-10-22T20:30:44.835Z,88.42
2022-10-22T20:32:46.803Z,88.50
2022-10-22T20:34:48.942Z,88.12
2022-10-22T20:36:53.682Z,88.22
2022-10-22T20:39:01.669Z,88.10
2022-10-22T20:41:09.551Z,88.18
2022-10-22T20:43:12.371Z,88.08
2022-10-22T20:45:15.283Z,88.49
2022-10-22T20:47:17.788Z,88.23
2022-10-22T20:49:21.521Z,88.01
2022-10-22T20:51:24.018Z,88.13
2022-10-22T20:53:27.157Z,88.35
2022-10-22T20:55:30.847Z,88.16
2022-10-22T20:57:33.063Z,88.15
2022-10-22T20:59:36.506Z,88.33
2022-10-22T21:01:41.569Z,88.19
2022-10-22T21:03:43.537Z,88.33
2022-10-22T21:05:45.613Z,87.98
2022-10-22T21:07:47.889Z,87.91
2022-10-22T21:09:49.843Z,88.18
2022-10-22T21:14:00.821Z,87.90
2022-10-22T21:16:12.065Z,88.24
2022-10-22T21:18:14.066Z,87.92
2022-10-22T21:20:17.162Z,87.99
2022-10-22T21:22:20.839Z,88.02
2022-10-22T21:24:24.990Z,88.04
2022-10-22T21:26:27.087Z,87.76
2022-10-22T21:30:35.553Z,87.86
2022-10-22T21:32:37.571Z,88.13
2022-10-22T21:34:39.456Z,87.72
2022-10-22T21:36:45.084Z,87.79
2022-10-22T21:38:47.134Z,88.03
2022-10-22T21:40:52.265Z,87.93
2022-10-22T21:42:54.335Z,88.23
2022-10-22T21:44:56.257Z,88.03
2022-10-22T21:46:58.268Z,88.20
2022-10-22T21:49:05.768Z,88.06
2022-10-22T21:51:13.579Z,88.16
2022-10-22T21:53:17.926Z,88.02
2022-10-22T21:55:19.993Z,88.09
2022-10-22T21:57:22.053Z,87.95
2022-10-22T21:59:24.160Z,88.11
2022-10-22T22:01:26.529Z,87.92
2022-10-22T22:03:28.841Z,88.03
2022-10-22T22:05:30.853Z,88.07
2022-10-22T22:07:33.230Z,87.77
2022-10-22T22:09:35.187Z,88.06
2022-10-22T22:11:37.181Z,87.96
2022-10-22T22:13:39.686Z,88.01
2022-10-22T22:15:41.546Z,87.71
2022-10-22T22:17:43.390Z,87.85
2022-10-22T22:19:45.251Z,87.73
2022-10-22T22:21:47.180Z,87.89
2022-10-22T22:23:50.441Z,87.47
2022-10-22T22:25:52.790Z,87.35
2022-10-22T22:27:54.661Z,87.42
2022-10-22T22:29:57.635Z,87.46
2022-10-22T22:31:59.546Z,87.68
2022-10-22T22:34:04.146Z,87.07
2022-10-22T22:36:06.499Z,87.53
2022-10-22T22:38:08.398Z,86.85
2022-10-22T22:40:11.737Z,86.75
2022-10-22T22:42:13.655Z,86.67
2022-10-22T22:44:16.125Z,86.73
2022-10-22T22:46:18.045Z,86.60
2022-10-22T22:48:19.892Z,86.20
2022-10-22T22:50:21.773Z,86.27
2022-10-22T22:52:23.625Z,85.92
2022-10-22T22:54:25.546Z,85.97
2022-10-22T22:56:32.870Z,85.90
2022-10-22T22:58:35.841Z,85.66
2022-10-22T23:00:37.736Z,85.91
2022-10-22T23:02:40.035Z,85.55
2022-10-22T23:04:43.065Z,85.77
2022-10-22T23:06:45.853Z,85.82
2022-10-22T23:08:50.507Z,85.75
2022-10-22T23:10:53.656Z,85.27
2022-10-22T23:12:55.560Z,85.28
2022-10-22T23:14:57.483Z,85.21
2022-10-22T23:16:59.289Z,85.46
2022-10-22T23:19:04.402Z,85.51
2022-10-22T23:21:07.851Z,85.03
2022-10-22T23:23:09.711Z,85.17
2022-10-22T23:25:11.618Z,85.09
2022-10-22T23:27:13.488Z,85.58
2022-10-22T23:29:24.410Z,85.27
2022-10-22T23:31:26.891Z,85.58
2022-10-22T23:33:28.754Z,85.58
2022-10-22T23:35:30.755Z,85.50
2022-10-22T23:37:32.754Z,85.65
2022-10-22T23:39:34.752Z,85.66
2022-10-22T23:41:37.286Z,85.85
2022-10-22T23:43:39.301Z,85.57
2022-10-22T23:45:41.243Z,85.89
2022-10-22T23:47:44.325Z,85.98
2022-10-22T23:49:46.516Z,85.71
2022-10-22T23:51:48.578Z,85.88
2022-10-22T23:54:02.083Z,86.06
2022-10-22T23:56:06.285Z,86.31
2022-10-22T23:58:10.393Z,86.13
